Time;durP1;ratioP1;P1;durP2;ratioP2;P2;SDS_P1;SDS_P2;PMS_P1;PMS_P2;Temp;Humidity;BMP_temperature;BMP_pressure;BME280_temperature;BME280_humidity;BME280_pressure;Samples;Min_cycle;Max_cycle;Signal;HPM_P1;HPM_P2
2022/08/25 00:01:55;;;;;;;;;;;;;;;23.49;64.24;99943.06;4386124;32;37733;-81
2022/08/25 00:04:23;;;;;;;;;;;;;;;23.39;64.75;99937.25;4397634;32;38943;-81
2022/08/25 00:07:09;;;;;;;;;;;;;;;23.26;64.85;99941.22;4394130;32;38150;-82
2022/08/25 00:09:37;;;;;;;;;;;;;;;23.41;64.41;99935.38;4389174;32;38159;-81
2022/08/25 00:12:04;;;;;;;;;;;;;;;23.29;64.91;99938.44;4384228;32;38797;-81
2022/08/25 00:14:33;;;;;;;;;;;;;;;23.50;64.27;99936.84;4386168;32;37999;-81
2022/08/25 00:17:00;;;;;;;;;;;;;;;23.45;64.59;99941.44;4409170;32;36717;-81
2022/08/25 00:19:30;;;;;;;;;;;;;;;23.34;64.62;99938.31;4405463;32;38952;-81
2022/08/25 00:21:57;;;;;;;;;;;;;;;23.32;64.77;99940.13;4391103;32;39660;-82
2022/08/25 00:24:25;;;;;;;;;;;;;;;23.23;64.72;99932.53;4384760;32;38828;-81
2022/08/25 00:26:53;;;;;;;;;;;;;;;23.34;64.27;99927.75;4384812;32;36511;-81
2022/08/25 00:29:22;;;;;;;;;;;;;;;23.23;64.68;99929.88;4377167;32;39057;-82
2022/08/25 00:31:51;;;;;;;;;;;;;;;23.36;63.99;99921.50;4405011;32;38061;-82
2022/08/25 00:34:19;;;;;;;;;;;;;;;23.21;64.64;99933.44;4399587;32;38755;-82
2022/08/25 00:36:49;;;;;;;;;;;;;;;23.29;64.47;99930.53;4399830;32;36917;-82
2022/08/25 00:39:19;;;;;;;;;;;;;;;23.31;64.41;99928.72;4374767;32;37565;-82
2022/08/25 00:41:47;;;;;;;;;;;;;;;23.40;64.20;99922.25;4398285;32;39787;-82
2022/08/25 00:44:18;;;;;;;;;;;;;;;23.15;64.92;99933.66;4392940;32;38568;-82
2022/08/25 00:46:50;;;;;;;;;;;;;;;23.24;64.49;99926.34;4093623;32;10001606;-82
2022/08/25 00:49:23;;;;;;;;;;;;;;;23.20;64.39;99926.44;4394190;32;37954;-81
2022/08/25 00:51:53;;;;;;;;;;;;;;;23.29;64.54;99924.37;4384597;32;38222;-82
2022/08/25 00:54:24;;;;;;;;;;;;;;;23.48;63.87;99919.31;4383055;32;38000;-82
2022/08/25 00:56:52;;;;;;;;;;;;;;;23.18;64.93;99927.41;4384049;32;39550;-82
2022/08/25 00:59:19;;;;;;;;;;;;;;;23.24;64.89;99931.63;4373284;32;43788;-82
2022/08/25 01:01:47;;;;;;;;;;;;;;;23.12;65.03;99923.19;4393958;32;37398;-82
2022/08/25 01:04:15;;;;;;;;;;;;;;;23.18;64.80;99928.28;4414658;32;39804;-82
2022/08/25 01:06:43;;;;;;;;;;;;;;;23.06;65.26;99922.53;4405410;32;38770;-81
2022/08/25 01:09:12;;;;;;;;;;;;;;;23.29;64.33;99919.97;4401033;32;37490;-81
2022/08/25 01:11:40;;;;;;;;;;;;;;;23.01;65.12;99922.72;4401129;32;37993;-82
2022/08/25 01:14:07;;;;;;;;;;;;;;;23.07;64.92;99925.16;4399346;32;38262;-81
2022/08/25 01:16:36;;;;;;;;;;;;;;;23.03;64.91;99920.88;4392858;32;39864;-82
2022/08/25 01:19:04;;;;;;;;;;;;;;;23.18;64.22;99922.13;4400826;32;37107;-82
2022/08/25 01:21:36;;;;;;;;;;;;;;;23.23;63.95;99927.25;4395374;32;40339;-82
2022/08/25 01:24:04;;;;;;;;;;;;;;;23.13;64.27;99918.78;4397485;32;37616;-82
2022/08/25 01:26:32;;;;;;;;;;;;;;;23.02;64.60;99920.94;4397979;32;37964;-82
2022/08/25 01:31:47;;;;;;;;;;;;;;;23.11;64.60;99926.75;4397405;32;38738;-81
2022/08/25 01:34:15;;;;;;;;;;;;;;;23.07;64.73;99918.97;4409070;32;39336;-82
2022/08/25 01:36:42;;;;;;;;;;;;;;;23.08;64.67;99921.59;4412061;32;38737;-82
2022/08/25 01:39:10;;;;;;;;;;;;;;;23.12;64.60;99911.78;4394347;32;37041;-81
2022/08/25 01:41:47;;;;;;;;;;;;;;;23.02;65.04;99913.00;4414601;32;38371;-82
2022/08/25 01:44:18;;;;;;;;;;;;;;;23.18;64.22;99912.44;4400724;32;38341;-82
2022/08/25 01:46:45;;;;;;;;;;;;;;;23.02;64.39;99911.22;4406696;32;40413;-82
2022/08/25 01:49:12;;;;;;;;;;;;;;;23.13;64.11;99918.78;4404437;32;36761;-82
2022/08/25 01:51:48;;;;;;;;;;;;;;;23.11;64.36;99924.13;4397396;32;38432;-82
2022/08/25 01:54:15;;;;;;;;;;;;;;;22.85;65.20;99918.84;4368784;32;37210;-82
2022/08/25 01:56:42;;;;;;;;;;;;;;;22.95;64.72;99920.28;4392312;32;38315;-82
2022/08/25 01:59:09;;;;;;;;;;;;;;;22.86;65.06;99920.56;4397249;32;36069;-82
2022/08/25 02:01:37;;;;;;;;;;;;;;;22.93;64.62;99922.94;4414705;32;39053;-82
2022/08/25 02:04:05;;;;;;;;;;;;;;;22.93;64.63;99916.78;4409098;32;37643;-82
2022/08/25 02:06:34;;;;;;;;;;;;;;;22.92;64.47;99915.94;4403101;32;39329;-82
2022/08/25 02:09:04;;;;;;;;;;;;;;;22.90;64.37;99911.59;4398054;32;36866;-82
2022/08/25 02:11:34;;;;;;;;;;;;;;;22.96;64.15;99908.78;4386845;32;38725;-81
2022/08/25 02:14:01;;;;;;;;;;;;;;;22.86;64.47;99916.13;4393687;32;38928;-81
2022/08/25 02:16:30;;;;;;;;;;;;;;;22.77;64.69;99915.56;4388223;32;39445;-81
2022/08/25 02:18:58;;;;;;;;;;;;;;;22.79;64.31;99905.84;4395106;32;36950;-82
2022/08/25 02:21:25;;;;;;;;;;;;;;;22.90;63.88;99914.25;4404889;32;38929;-81
2022/08/25 02:23:52;;;;;;;;;;;;;;;22.74;64.62;99912.09;4398865;32;39200;-82
2022/08/25 02:26:20;;;;;;;;;;;;;;;22.75;64.56;99903.28;4383807;32;39257;-81
2022/08/25 02:28:48;;;;;;;;;;;;;;;22.73;64.67;99904.25;4407324;32;37058;-82
2022/08/25 02:31:15;;;;;;;;;;;;;;;22.76;64.46;99904.16;4397179;32;37919;-81
2022/08/25 02:33:43;;;;;;;;;;;;;;;22.78;64.30;99904.09;4397102;32;38513;-81
2022/08/25 02:36:10;;;;;;;;;;;;;;;22.69;64.58;99908.78;4387923;32;37913;-81
2022/08/25 02:38:37;;;;;;;;;;;;;;;22.71;64.62;99912.19;4396685;32;36889;-82
2022/08/25 02:41:23;;;;;;;;;;;;;;;22.71;64.65;99912.19;4100886;32;5002016;-82
2022/08/25 02:44:01;;;;;;;;;;;;;;;22.82;64.07;99903.09;4389226;32;38938;-81
2022/08/25 02:46:29;;;;;;;;;;;;;;;22.61;64.62;99909.94;4399046;32;37983;-81
2022/08/25 02:48:57;;;;;;;;;;;;;;;22.59;64.54;99899.44;4382922;32;36347;-81
2022/08/25 02:51:24;;;;;;;;;;;;;;;22.69;64.13;99903.50;4383235;32;37917;-81
2022/08/25 02:53:52;;;;;;;;;;;;;;;22.78;63.77;99896.16;4383467;32;37815;-81
2022/08/25 02:56:19;;;;;;;;;;;;;;;22.70;64.24;99902.56;4386613;32;40441;-81
2022/08/25 02:58:46;;;;;;;;;;;;;;;22.59;64.42;99902.06;4398404;32;36574;-81
2022/08/25 03:01:14;;;;;;;;;;;;;;;22.63;64.32;99900.19;4384607;32;37151;-81
2022/08/25 03:03:43;;;;;;;;;;;;;;;22.68;64.24;99901.75;4394286;32;37116;-81
2022/08/25 03:06:12;;;;;;;;;;;;;;;22.62;64.48;99895.81;4391818;32;39215;-82
2022/08/25 03:08:40;;;;;;;;;;;;;;;22.61;64.33;99894.94;4396895;32;38204;-82
2022/08/25 03:11:08;;;;;;;;;;;;;;;22.64;64.40;99894.84;4397444;32;38356;-82
2022/08/25 03:13:36;;;;;;;;;;;;;;;22.64;64.42;99894.84;4394804;32;37816;-83
2022/08/25 03:16:04;;;;;;;;;;;;;;;22.63;64.40;99903.69;4391798;32;39121;-82
2022/08/25 03:18:37;;;;;;;;;;;;;;;22.64;64.16;99900.13;4373474;32;35332;-82
2022/08/25 03:21:05;;;;;;;;;;;;;;;22.68;63.97;99891.19;4399469;32;37455;-82
2022/08/25 03:23:32;;;;;;;;;;;;;;;22.42;64.79;99899.94;4391818;32;38987;-81
2022/08/25 03:28:45;;;;;;;;;;;;;;;22.47;64.62;99886.63;4389841;32;39436;-81
2022/08/25 03:31:12;;;;;;;;;;;;;;;22.57;64.03;99893.34;4390657;32;37555;-81
2022/08/25 03:33:40;;;;;;;;;;;;;;;22.42;64.58;99899.09;4385168;32;36629;-81
2022/08/25 03:36:08;;;;;;;;;;;;;;;22.44;64.72;99892.00;4388424;32;38388;-81
2022/08/25 03:38:37;;;;;;;;;;;;;;;22.50;64.56;99907.63;4399037;32;38834;-81
2022/08/25 03:41:20;;;;;;;;;;;;;;;22.55;64.34;99900.44;4400619;32;36562;-82
2022/08/25 03:43:48;;;;;;;;;;;;;;;22.62;64.17;99901.09;4398642;32;38130;-81
2022/08/25 03:46:16;;;;;;;;;;;;;;;22.53;64.51;99902.28;4386269;32;38852;-81
2022/08/25 03:48:43;;;;;;;;;;;;;;;22.47;64.71;99895.41;4404866;32;38892;-82
2022/08/25 03:51:11;;;;;;;;;;;;;;;22.62;64.09;99896.69;4393950;32;36426;-82
2022/08/25 03:53:38;;;;;;;;;;;;;;;22.58;64.34;99895.06;4411482;32;37940;-81
2022/08/25 03:56:05;;;;;;;;;;;;;;;22.57;64.54;99898.59;4399997;32;38177;-81
2022/08/25 03:58:32;;;;;;;;;;;;;;;22.58;64.54;99895.06;4396819;32;39310;-82
2022/08/25 04:01:00;;;;;;;;;;;;;;;22.62;64.26;99886.16;4394693;32;36497;-81
2022/08/25 04:03:27;;;;;;;;;;;;;;;22.40;65.57;99895.63;4398576;32;38290;-82
2022/08/25 04:05:55;;;;;;;;;;;;;;;22.46;65.61;99896.31;4395072;32;38786;-81
2022/08/25 04:08:22;;;;;;;;;;;;;;;22.58;65.46;99894.19;4396157;32;38907;-81
2022/08/25 04:10:50;;;;;;;;;;;;;;;22.56;65.83;99896.91;4400438;32;37094;-81
2022/08/25 04:13:17;;;;;;;;;;;;;;;22.71;65.65;99906.06;4400235;32;38522;-82
2022/08/25 04:15:44;;;;;;;;;;;;;;;22.78;65.57;99901.44;4393110;32;38486;-83
2022/08/25 04:18:12;;;;;;;;;;;;;;;22.73;65.82;99907.75;4378777;32;38423;-82
2022/08/25 04:20:40;;;;;;;;;;;;;;;22.81;65.67;99911.91;4384648;32;37753;-82
2022/08/25 04:23:13;;;;;;;;;;;;;;;22.85;65.54;99909.13;4385098;32;37825;-82
2022/08/25 04:25:43;;;;;;;;;;;;;;;22.80;65.77;99911.03;4375289;32;39152;-82
2022/08/25 04:28:12;;;;;;;;;;;;;;;22.69;66.19;99903.50;4380167;32;39093;-82
2022/08/25 04:30:40;;;;;;;;;;;;;;;22.94;65.36;99907.97;4370513;32;37846;-82
2022/08/25 04:33:08;;;;;;;;;;;;;;;22.79;65.95;99903.19;4391606;32;38065;-81
2022/08/25 04:35:35;;;;;;;;;;;;;;;22.84;66.13;99906.53;4398286;32;36963;-81
2022/08/25 04:38:04;;;;;;;;;;;;;;;22.85;66.19;99906.50;4399018;32;38470;-83
2022/08/25 04:40:31;;;;;;;;;;;;;;;22.96;65.67;99907.00;4390282;32;36947;-83
2022/08/25 04:42:59;;;;;;;;;;;;;;;23.02;65.69;99900.66;4398368;32;38236;-82
2022/08/25 04:45:26;;;;;;;;;;;;;;;22.88;66.49;99902.91;4376464;32;38535;-83
2022/08/25 04:47:56;;;;;;;;;;;;;;;23.05;65.89;99900.56;4387519;32;37864;-83
2022/08/25 04:50:24;;;;;;;;;;;;;;;23.06;66.15;99901.41;4393875;32;36300;-83
2022/08/25 04:52:51;;;;;;;;;;;;;;;23.03;66.44;99902.37;4399834;32;38190;-85
2022/08/25 04:55:20;;;;;;;;;;;;;;;22.91;66.99;99902.75;4385892;32;38703;-82
2022/08/25 04:57:47;;;;;;;;;;;;;;;23.04;66.63;99904.13;4383707;32;39832;-82
2022/08/25 05:00:15;;;;;;;;;;;;;;;23.17;66.11;99905.44;4371161;32;35699;-82
2022/08/25 05:02:42;;;;;;;;;;;;;;;23.26;65.90;99898.09;4388374;32;37044;-84
2022/08/25 05:05:09;;;;;;;;;;;;;;;23.36;65.90;99900.38;4399603;32;37981;-83
2022/08/25 05:07:37;;;;;;;;;;;;;;;23.15;66.84;99901.97;4399906;32;38295;-82
2022/08/25 05:10:04;;;;;;;;;;;;;;;23.33;66.32;99910.19;4399634;32;36730;-82
2022/08/25 05:12:33;;;;;;;;;;;;;;;23.39;66.20;99900.25;4399643;32;38370;-82
2022/08/25 05:15:48;;;;;;;;;;;;;;;23.32;66.58;99898.72;4398485;32;37906;-82
2022/08/25 05:17:48;;;;;;;;;;;;;;;23.32;66.90;99897.88;4398134;32;37881;-82
2022/08/25 05:20:21;;;;;;;;;;;;;;;23.45;66.46;99899.16;4394917;32;36772;-82
2022/08/25 05:22:49;;;;;;;;;;;;;;;23.49;66.67;99899.94;4381159;32;38146;-81
2022/08/25 05:25:16;;;;;;;;;;;;;;;23.52;66.76;99898.03;4385392;32;37195;-81
2022/08/25 05:27:43;;;;;;;;;;;;;;;23.61;66.63;99895.06;4398184;32;38508;-81
2022/08/25 05:30:11;;;;;;;;;;;;;;;23.63;66.86;99903.78;4390363;32;37131;-81
2022/08/25 05:32:38;;;;;;;;;;;;;;;23.73;66.78;99892.91;4390902;32;38574;-81
2022/08/25 05:35:06;;;;;;;;;;;;;;;23.75;67.01;99901.66;4408008;32;38477;-81
2022/08/25 05:37:33;;;;;;;;;;;;;;;23.75;67.23;99896.38;4384795;32;38983;-81
2022/08/25 05:40:01;;;;;;;;;;;;;;;23.77;67.38;99894.50;4402902;32;36121;-81
2022/08/25 05:42:28;;;;;;;;;;;;;;;23.91;66.90;99897.50;4393017;32;37305;-81
2022/08/25 05:44:55;;;;;;;;;;;;;;;23.92;67.04;99890.44;4399313;32;38082;-81
2022/08/25 05:47:23;;;;;;;;;;;;;;;23.97;66.93;99896.41;4395813;32;38965;-82
2022/08/25 05:49:50;;;;;;;;;;;;;;;24.03;66.65;99897.03;4377864;32;39092;-81
2022/08/25 05:52:18;;;;;;;;;;;;;;;24.05;66.66;99889.91;4394468;32;39043;-81
2022/08/25 05:54:46;;;;;;;;;;;;;;;24.19;66.27;99896.47;4399358;32;38958;-81
2022/08/25 05:57:13;;;;;;;;;;;;;;;24.31;65.86;99890.66;4399245;32;39039;-81
2022/08/25 05:59:41;;;;;;;;;;;;;;;24.25;66.31;99893.53;4392325;32;34955;-82
2022/08/25 06:04:54;;;;;;;;;;;;;;;24.44;65.46;99891.94;4383900;32;38251;-81
2022/08/25 06:07:21;;;;;;;;;;;;;;;24.34;65.86;99890.53;4398821;32;39373;-81
2022/08/25 06:09:49;;;;;;;;;;;;;;;24.38;66.01;99892.16;4385449;32;36544;-82
2022/08/25 06:12:16;;;;;;;;;;;;;;;24.50;65.69;99890.81;4397933;32;38403;-81
2022/08/25 06:14:44;;;;;;;;;;;;;;;24.50;65.84;99896.97;4393430;32;38886;-81
2022/08/25 06:17:11;;;;;;;;;;;;;;;24.68;65.31;99899.81;4380144;32;39273;-81
2022/08/25 06:19:38;;;;;;;;;;;;;;;24.67;65.47;99898.94;4410270;32;35439;-82
2022/08/25 06:22:07;;;;;;;;;;;;;;;24.71;65.63;99899.69;4394276;32;39792;-82
2022/08/25 06:24:34;;;;;;;;;;;;;;;24.78;65.65;99906.44;4392616;32;39620;-82
2022/08/25 06:27:02;;;;;;;;;;;;;;;24.82;65.92;99902.72;4389183;32;39142;-82
2022/08/25 06:29:30;;;;;;;;;;;;;;;24.88;66.51;99902.47;4398663;32;37625;-82
2022/08/25 06:31:57;;;;;;;;;;;;;;;25.04;66.57;99898.25;4384700;32;37240;-83
2022/08/25 06:34:26;;;;;;;;;;;;;;;25.19;66.91;99901.22;4375820;32;38412;-82
2022/08/25 06:36:53;;;;;;;;;;;;;;;25.45;65.93;99903.59;4398233;32;38331;-81
2022/08/25 06:39:20;;;;;;;;;;;;;;;25.81;64.39;99905.53;4094471;32;10004485;-82
2022/08/25 06:41:55;;;;;;;;;;;;;;;26.10;63.46;99917.47;4395454;32;36528;-82
2022/08/25 06:44:26;;;;;;;;;;;;;;;26.39;62.99;99908.13;4385248;32;38349;-82
2022/08/25 06:46:54;;;;;;;;;;;;;;;26.84;61.50;99904.19;4396174;32;38091;-83
2022/08/25 06:49:21;;;;;;;;;;;;;;;27.19;60.65;99914.84;4377638;32;38448;-83
2022/08/25 06:51:49;;;;;;;;;;;;;;;27.66;58.54;99908.81;4391845;32;37106;-82
2022/08/25 06:54:16;;;;;;;;;;;;;;;27.94;57.00;99904.72;4362409;32;39191;-82
2022/08/25 06:56:44;;;;;;;;;;;;;;;28.24;56.94;99913.66;4383693;32;37960;-83
2022/08/25 06:59:11;;;;;;;;;;;;;;;28.61;56.90;99914.25;4371639;32;38272;-83
2022/08/25 07:01:39;;;;;;;;;;;;;;;28.69;56.40;99912.03;4385632;32;36720;-84
2022/08/25 07:04:06;;;;;;;;;;;;;;;28.75;55.39;99916.16;4386773;32;37762;-82
2022/08/25 07:06:39;;;;;;;;;;;;;;;28.97;54.26;99915.72;4359849;32;37903;-84
2022/08/25 07:09:07;;;;;;;;;;;;;;;29.17;53.08;99911.94;4385080;32;38462;-83
2022/08/25 07:11:34;;;;;;;;;;;;;;;29.32;53.75;99907.47;4383827;32;35295;-82
2022/08/25 07:14:02;;;;;;;;;;;;;;;29.77;52.77;99916.28;4382740;32;38688;-83
2022/08/25 07:16:30;;;;;;;;;;;;;;;29.82;50.98;99914.22;4386451;32;38788;-83
2022/08/25 07:18:58;;;;;;;;;;;;;;;30.01;51.83;99904.09;4361314;32;38778;-84
2022/08/25 07:21:27;;;;;;;;;;;;;;;30.27;51.04;99906.94;4364350;32;36202;-84
2022/08/25 07:24:00;;;;;;;;;;;;;;;30.40;51.54;99909.66;4398558;32;38634;-83
2022/08/25 07:26:29;;;;;;;;;;;;;;;30.36;50.42;99914.34;4398994;32;37400;-82
2022/08/25 07:29:07;;;;;;;;;;;;;;;30.63;51.44;99909.00;4399069;32;38596;-82
2022/08/25 07:31:35;;;;;;;;;;;;;;;30.94;52.10;99899.81;4396223;32;37463;-83
2022/08/25 07:36:52;;;;;;;;;;;;;;;30.83;48.75;99899.72;4385133;32;37935;-83
2022/08/25 07:39:20;;;;;;;;;;;;;;;31.07;48.93;99907.03;4376106;32;38636;-83
2022/08/25 07:41:48;;;;;;;;;;;;;;;31.23;50.84;99905.00;4395039;32;36069;-83
2022/08/25 07:44:19;;;;;;;;;;;;;;;30.96;49.90;99902.41;4380169;32;39063;-83
2022/08/25 07:46:47;;;;;;;;;;;;;;;31.27;49.80;99906.50;4381099;32;38413;-84
2022/08/25 07:49:17;;;;;;;;;;;;;;;31.01;48.49;99906.47;4398344;32;39368;-83
2022/08/25 07:52:10;;;;;;;;;;;;;;;31.33;48.44;99892.72;4404210;32;36211;-83
2022/08/25 07:54:37;;;;;;;;;;;;;;;31.66;50.33;99899.38;4376644;32;38915;-84
2022/08/25 07:57:05;;;;;;;;;;;;;;;31.49;48.15;99893.41;4370186;32;37693;-83
2022/08/25 07:59:33;;;;;;;;;;;;;;;31.59;50.25;99895.41;4369671;32;38324;-83
2022/08/25 08:02:11;;;;;;;;;;;;;;;31.63;49.70;99896.94;4220043;32;5092345;-83
2022/08/25 08:04:47;;;;;;;;;;;;;;;31.67;48.01;99898.41;4399394;32;37940;-83
2022/08/25 08:07:15;;;;;;;;;;;;;;;32.01;48.14;99896.03;4384526;32;40043;-82
2022/08/25 08:09:43;;;;;;;;;;;;;;;31.69;45.75;99896.50;4408474;32;38582;-83
2022/08/25 08:12:12;;;;;;;;;;;;;;;31.62;44.64;99895.19;4373542;32;35310;-83
2022/08/25 08:14:41;;;;;;;;;;;;;;;31.75;46.20;99901.41;4383226;32;38492;-83
2022/08/25 08:17:12;;;;;;;;;;;;;;;32.10;44.37;99906.94;4384386;32;37840;-83
2022/08/25 08:19:39;;;;;;;;;;;;;;;32.11;45.41;99914.00;4374406;32;38078;-83
2022/08/25 08:22:13;;;;;;;;;;;;;;;32.24;46.39;99907.75;4407624;32;36805;-83
2022/08/25 08:24:43;;;;;;;;;;;;;;;32.03;45.88;99904.81;4383393;32;37167;-82
2022/08/25 08:27:22;;;;;;;;;;;;;;;31.95;42.55;99903.53;4384872;32;38433;-83
2022/08/25 08:29:49;;;;;;;;;;;;;;;32.00;42.89;99899.66;4408186;32;39414;-83
2022/08/25 08:32:17;;;;;;;;;;;;;;;31.83;41.41;99898.19;4399000;32;36483;-83
2022/08/25 08:34:45;;;;;;;;;;;;;;;32.47;43.22;99892.69;4383983;32;37323;-83
2022/08/25 08:37:17;;;;;;;;;;;;;;;32.09;46.28;99899.00;4391436;32;39509;-83
2022/08/25 08:39:50;;;;;;;;;;;;;;;32.55;44.69;99898.34;4405469;32;38770;-82
2022/08/25 08:42:17;;;;;;;;;;;;;;;32.29;47.51;99906.47;4408215;32;37921;-83
2022/08/25 08:44:44;;;;;;;;;;;;;;;32.21;44.87;99899.94;4390820;32;39181;-83
2022/08/25 08:47:27;;;;;;;;;;;;;;;32.41;42.65;99900.19;4398434;32;38147;-83
2022/08/25 08:49:57;;;;;;;;;;;;;;;32.63;41.43;99894.09;4393121;32;38360;-84
2022/08/25 08:52:35;;;;;;;;;;;;;;;32.31;45.54;99896.47;4370987;32;35410;-83
2022/08/25 08:55:04;;;;;;;;;;;;;;;32.38;44.40;99895.03;4388598;32;37864;-84
2022/08/25 08:57:34;;;;;;;;;;;;;;;32.56;45.25;99892.00;4371607;32;38023;-84
2022/08/25 09:00:04;;;;;;;;;;;;;;;32.45;41.98;99889.25;4390572;32;38798;-84
2022/08/25 09:02:38;;;;;;;;;;;;;;;32.50;47.36;99882.59;4370816;32;35736;-84
2022/08/25 09:05:21;;;;;;;;;;;;;;;32.30;40.21;99893.91;4380615;32;36746;-84
2022/08/25 09:07:50;;;;;;;;;;;;;;;32.48;39.55;99891.72;4369793;32;37684;-83
2022/08/25 09:10:21;;;;;;;;;;;;;;;32.74;42.58;99890.62;4383145;32;38035;-84
2022/08/25 09:12:50;;;;;;;;;;;;;;;32.39;39.98;99891.41;4392171;32;37597;-84
2022/08/25 09:18:42;;;;;;;;;;;;;;;32.40;37.46;99882.41;4372332;32;38055;-84
2022/08/25 09:21:36;;;;;;;;;;;;;;;32.64;39.15;99873.50;4371985;32;39520;-84
2022/08/25 09:24:09;;;;;;;;;;;;;;;32.90;37.95;99876.94;4370566;32;36332;-84
2022/08/25 09:26:44;;;;;;;;;;;;;;;32.90;40.95;99871.56;4371520;32;37613;-84
2022/08/25 09:29:12;;;;;;;;;;;;;;;32.84;43.66;99864.84;4391709;32;39060;-84
2022/08/25 09:31:43;;;;;;;;;;;;;;;32.91;40.91;99865.22;4398758;32;38195;-84
2022/08/25 09:34:12;;;;;;;;;;;;;;;33.33;40.81;99863.75;4382663;32;36562;-84
2022/08/25 09:36:40;;;;;;;;;;;;;;;32.88;35.58;99858.25;4382773;32;38047;-84
2022/08/25 09:39:07;;;;;;;;;;;;;;;33.17;38.55;99855.19;4389184;32;39000;-84
2022/08/25 09:41:38;;;;;;;;;;;;;;;33.00;39.22;99852.97;4399492;32;37989;-84
2022/08/25 09:44:24;;;;;;;;;;;;;;;32.65;38.79;99843.06;4387935;32;36185;-84
2022/08/25 09:47:04;;;;;;;;;;;;;;;33.26;39.44;99846.41;4397161;32;37891;-84
2022/08/25 09:49:41;;;;;;;;;;;;;;;33.12;38.34;99835.91;4390631;32;39297;-82
2022/08/25 09:52:15;;;;;;;;;;;;;;;33.40;35.72;99839.94;4395238;32;39268;-83
2022/08/25 09:54:43;;;;;;;;;;;;;;;33.65;36.64;99833.53;4392981;32;36715;-82
2022/08/25 09:57:49;;;;;;;;;;;;;;;33.59;36.33;99828.63;4396636;32;38982;-83
2022/08/25 10:00:23;;;;;;;;;;;;;;;33.70;36.42;99825.13;4336000;32;37272;-83
2022/08/25 10:03:04;;;;;;;;;;;;;;;33.40;39.74;99823.00;4379220;32;38400;-83
2022/08/25 10:05:34;;;;;;;;;;;;;;;33.59;35.96;99817.91;4394137;32;36214;-83
2022/08/25 10:08:03;;;;;;;;;;;;;;;33.69;34.10;99815.31;4377419;32;37885;-83
2022/08/25 10:10:33;;;;;;;;;;;;;;;33.73;35.77;99814.12;4375879;32;37888;-83
2022/08/25 10:13:02;;;;;;;;;;;;;;;33.66;36.10;99810.22;4404905;32;38186;-83
2022/08/25 10:15:34;;;;;;;;;;;;;;;33.99;34.57;99817.37;4388230;32;37667;-82
2022/08/25 10:18:20;;;;;;;;;;;;;;;33.64;35.85;99814.88;4383757;32;38472;-82
2022/08/25 10:21:05;;;;;;;;;;;;;;;33.71;35.42;99816.06;4383779;32;38264;-83
2022/08/25 10:23:35;;;;;;;;;;;;;;;34.04;34.20;99812.47;4370094;32;39349;-83
2022/08/25 10:26:10;;;;;;;;;;;;;;;33.44;36.86;99809.22;4376031;32;37736;-84
2022/08/25 10:28:47;;;;;;;;;;;;;;;33.91;34.71;99804.53;4382953;32;37094;-84
2022/08/25 10:31:18;;;;;;;;;;;;;;;34.03;33.37;99800.03;4385564;32;39296;-84
2022/08/25 10:33:50;;;;;;;;;;;;;;;33.94;36.30;99801.59;4390461;32;38717;-85
2022/08/25 10:36:22;;;;;;;;;;;;;;;33.60;34.89;99798.16;4397588;32;36796;-84
2022/08/25 10:38:52;;;;;;;;;;;;;;;33.65;31.68;99787.03;4396451;32;39696;-84
2022/08/25 10:41:32;;;;;;;;;;;;;;;33.80;33.55;99788.47;4392596;32;37657;-84
2022/08/25 10:44:02;;;;;;;;;;;;;;;34.23;34.84;99780.41;4386819;32;38482;-84
2022/08/25 10:46:36;;;;;;;;;;;;;;;34.18;34.93;99777.28;4387153;32;36472;-84
2022/08/25 10:49:04;;;;;;;;;;;;;;;33.57;33.48;99776.94;4391978;32;38789;-84
2022/08/25 10:51:31;;;;;;;;;;;;;;;33.89;34.60;99778.78;4408654;32;38060;-84
2022/08/25 10:54:11;;;;;;;;;;;;;;;33.54;34.94;99778.03;4394373;32;38860;-83
2022/08/25 10:56:40;;;;;;;;;;;;;;;33.63;37.68;99773.72;4396307;32;36544;-84
2022/08/25 10:59:08;;;;;;;;;;;;;;;34.23;35.24;99769.66;4383965;32;39056;-84
2022/08/25 11:01:41;;;;;;;;;;;;;;;34.39;33.67;99773.75;4384096;32;38038;-83
2022/08/25 11:04:25;;;;;;;;;;;;;;;34.49;33.81;99763.94;4384091;32;38987;-84
2022/08/25 11:06:58;;;;;;;;;;;;;;;34.43;32.49;99764.44;4385386;32;36308;-83
2022/08/25 11:09:29;;;;;;;;;;;;;;;34.43;35.22;99759.06;4384323;32;38953;-83
2022/08/25 11:11:58;;;;;;;;;;;;;;;34.61;33.55;99756.69;4385386;32;37994;-84
2022/08/25 11:14:33;;;;;;;;;;;;;;;34.96;32.26;99750.94;4387915;32;38301;-84
2022/08/25 11:17:05;;;;;;;;;;;;;;;34.76;32.52;99755.38;4372443;32;38402;-83
2022/08/25 11:19:37;;;;;;;;;;;;;;;34.84;31.18;99747.47;4391508;32;38623;-84
2022/08/25 11:22:13;;;;;;;;;;;;;;;34.71;33.72;99747.69;4391289;32;38285;-84
2022/08/25 11:24:46;;;;;;;;;;;;;;;33.90;35.04;99745.59;4397387;32;38314;-84
2022/08/25 11:27:23;;;;;;;;;;;;;;;34.11;35.80;99738.47;4392682;32;37436;-84
2022/08/25 11:29:55;;;;;;;;;;;;;;;33.76;33.62;99744.91;4398975;32;37882;-85
2022/08/25 11:32:23;;;;;;;;;;;;;;;33.69;33.26;99734.78;4397002;32;39483;-84
2022/08/25 11:34:51;;;;;;;;;;;;;;;33.63;34.51;99733.44;4377452;32;38022;-84
2022/08/25 11:37:25;;;;;;;;;;;;;;;33.64;34.68;99729.81;4384576;32;35781;-84
2022/08/25 11:39:58;;;;;;;;;;;;;;;33.81;36.08;99714.97;4390015;32;38485;-84
2022/08/25 11:42:46;;;;;;;;;;;;;;;34.28;34.39;99712.88;4384344;32;37862;-84
2022/08/25 11:45:19;;;;;;;;;;;;;;;34.35;33.07;99707.81;4387690;32;38303;-84
2022/08/25 11:47:54;;;;;;;;;;;;;;;34.65;34.49;99704.34;4388655;32;37295;-84
2022/08/25 11:50:25;;;;;;;;;;;;;;;34.90;32.04;99703.06;4379722;32;38157;-83
2022/08/25 11:52:58;;;;;;;;;;;;;;;34.96;33.63;99702.53;4399356;32;39531;-84
2022/08/25 11:55:30;;;;;;;;;;;;;;;35.02;32.07;99706.53;4378138;32;39439;-84
2022/08/25 11:58:22;;;;;;;;;;;;;;;34.97;32.11;99706.91;4373390;32;35183;-84
2022/08/25 12:00:53;;;;;;;;;;;;;;;34.95;32.16;99699.00;4373304;32;38822;-85
2022/08/25 12:03:33;;;;;;;;;;;;;;;35.28;31.72;99701.53;4385509;32;38229;-84
2022/08/25 12:06:18;;;;;;;;;;;;;;;34.87;33.30;99692.56;4399077;32;39095;-86
2022/08/25 12:08:46;;;;;;;;;;;;;;;34.71;31.80;99693.06;4385355;32;36489;-85
2022/08/25 12:11:21;;;;;;;;;;;;;;;34.50;32.95;99685.00;4389831;32;39136;-85
2022/08/25 12:13:49;;;;;;;;;;;;;;;34.45;31.70;99679.16;4396140;32;38952;-85
2022/08/25 12:16:35;;;;;;;;;;;;;;;34.42;31.09;99679.44;4378568;32;39198;-84
2022/08/25 12:19:21;;;;;;;;;;;;;;;34.64;32.67;99675.75;4399227;32;37589;-84
2022/08/25 12:21:49;;;;;;;;;;;;;;;34.62;32.70;99675.91;4394087;32;39126;-85
2022/08/25 12:24:18;;;;;;;;;;;;;;;34.44;34.59;99685.53;4387092;32;38534;-85
2022/08/25 12:26:57;;;;;;;;;;;;;;;34.55;31.96;99681.94;4382745;32;38831;-85
2022/08/25 12:29:43;;;;;;;;;;;;;;;34.57;31.73;99691.59;4382788;32;37992;-84
2022/08/25 12:32:29;;;;;;;;;;;;;;;34.42;34.99;99684.81;4349282;32;926307;-84
2022/08/25 12:35:29;;;;;;;;;;;;;;;34.29;33.97;99681.47;4372418;32;37543;-84
2022/08/25 12:38:03;;;;;;;;;;;;;;;34.80;33.77;99680.66;4355583;32;38068;-85
2022/08/25 12:40:33;;;;;;;;;;;;;;;35.03;32.38;99666.06;4395539;32;36574;-84
2022/08/25 12:43:06;;;;;;;;;;;;;;;35.04;32.33;99665.09;4399902;32;39041;-85
2022/08/25 12:45:36;;;;;;;;;;;;;;;35.00;32.56;99665.44;4396854;32;38462;-85
2022/08/25 12:48:23;;;;;;;;;;;;;;;34.40;36.13;99662.59;4389575;32;39452;-85
2022/08/25 12:50:57;;;;;;;;;;;;;;;33.64;37.94;99670.75;4395890;32;37952;-86
2022/08/25 12:53:24;;;;;;;;;;;;;;;34.20;34.08;99661.59;4394854;32;38257;-85
2022/08/25 12:55:54;;;;;;;;;;;;;;;33.86;34.20;99659.06;4394959;32;39134;-85
2022/08/25 12:58:22;;;;;;;;;;;;;;;34.30;32.85;99657.13;4373840;32;39735;-85
2022/08/25 13:01:08;;;;;;;;;;;;;;;34.84;33.19;99655.19;4385333;32;37367;-85
2022/08/25 13:04:10;;;;;;;;;;;;;;;34.90;34.05;99654.66;4376523;32;36923;-85
2022/08/25 13:06:47;;;;;;;;;;;;;;;34.81;34.43;99661.69;4399825;32;39112;-85
2022/08/25 13:09:33;;;;;;;;;;;;;;;34.82;33.39;99662.56;4398511;32;39750;-85
2022/08/25 13:12:04;;;;;;;;;;;;;;;34.63;33.86;99652.56;4389937;32;36696;-85
2022/08/25 13:14:33;;;;;;;;;;;;;;;34.35;34.98;99648.69;4395805;32;39271;-85
2022/08/25 13:17:04;;;;;;;;;;;;;;;34.16;35.71;99644.88;4377257;32;38014;-85
2022/08/25 13:19:32;;;;;;;;;;;;;;;34.13;35.70;99650.53;4399324;32;38287;-84